createdAt,value
2023-04-29T00:01:25.843Z,6.93
2023-04-29T00:03:53.665Z,5.40
2023-04-29T00:06:21.495Z,9.38
2023-04-29T00:08:48.726Z,7.97
2023-04-29T00:11:16.079Z,7.30
2023-04-29T00:13:43.174Z,6.55
2023-04-29T00:16:10.356Z,5.00
2023-04-29T00:18:37.939Z,7.78
2023-04-29T00:21:08.105Z,7.18
2023-04-29T00:23:35.330Z,4.65
2023-04-29T00:26:03.116Z,5.00
2023-04-29T00:28:30.193Z,5.10
2023-04-29T00:30:57.812Z,5.38
2023-04-29T00:33:24.929Z,6.85
2023-04-29T00:35:51.997Z,7.10
2023-04-29T00:38:19.057Z,7.38
2023-04-29T00:40:46.201Z,7.57
2023-04-29T00:43:13.759Z,8.30
2023-04-29T00:45:40.961Z,8.90
2023-04-29T00:48:08.149Z,6.45
2023-04-29T00:50:36.602Z,6.45
2023-04-29T00:53:04.355Z,7.97
2023-04-29T00:55:33.175Z,6.40
2023-04-29T00:58:02.613Z,8.00
2023-04-29T01:00:30.384Z,6.03
2023-04-29T01:02:59.755Z,6.50
2023-04-29T01:05:27.718Z,6.53
2023-04-29T01:08:18.366Z,11.82
2023-04-29T01:11:01.036Z,10.32
2023-04-29T01:13:37.771Z,9.43
2023-04-29T01:16:11.844Z,11.10
2023-04-29T01:21:08.979Z,11.00
2023-04-29T01:23:35.986Z,15.10
2023-04-29T01:26:03.098Z,18.00
2023-04-29T01:28:59.087Z,19.45
2023-04-29T01:31:41.452Z,14.98
2023-04-29T01:34:17.368Z,15.70
2023-04-29T01:37:00.707Z,13.65
2023-04-29T01:39:35.780Z,14.63
2023-04-29T01:42:25.154Z,13.88
2023-04-29T01:44:56.556Z,12.43
2023-04-29T01:47:25.472Z,12.10
2023-04-29T01:49:54.635Z,19.75
2023-04-29T01:52:23.111Z,14.70
2023-04-29T01:54:57.291Z,13.27
2023-04-29T01:57:25.864Z,18.25
2023-04-29T02:00:06.674Z,14.73
2023-04-29T02:02:51.112Z,16.08
2023-04-29T02:05:34.367Z,13.73
2023-04-29T02:08:02.667Z,15.30
2023-04-29T02:10:31.569Z,15.90
2023-04-29T02:13:21.342Z,15.40
2023-04-29T02:15:49.244Z,14.77
2023-04-29T02:18:16.930Z,11.70
2023-04-29T02:20:44.422Z,13.63
2023-04-29T02:23:11.457Z,14.50
2023-04-29T02:25:38.662Z,12.85
2023-04-29T02:28:05.734Z,14.43
2023-04-29T02:30:32.770Z,11.73
2023-04-29T02:32:59.939Z,13.73
2023-04-29T02:35:26.984Z,12.98
2023-04-29T02:37:55.237Z,14.10
2023-04-29T02:40:22.285Z,14.35
2023-04-29T02:42:49.249Z,11.32
2023-04-29T02:45:16.358Z,13.73
2023-04-29T02:47:44.796Z,13.82
2023-04-29T02:50:11.871Z,13.30
2023-04-29T02:52:41.679Z,12.68
2023-04-29T02:55:09.412Z,13.68
2023-04-29T02:57:36.474Z,14.18
2023-04-29T03:00:03.890Z,12.30
2023-04-29T03:02:31.042Z,14.43
2023-04-29T03:04:59.607Z,18.40
2023-04-29T03:07:27.894Z,12.50
2023-04-29T03:09:55.406Z,14.10
2023-04-29T03:12:22.630Z,12.63
2023-04-29T03:14:49.835Z,10.52
2023-04-29T03:17:16.880Z,14.05
2023-04-29T03:19:44.048Z,14.02
2023-04-29T03:22:11.909Z,12.35
2023-04-29T03:24:41.367Z,12.55
2023-04-29T03:27:08.489Z,13.48
2023-04-29T03:29:35.642Z,13.07
2023-04-29T03:32:03.046Z,13.90
2023-04-29T03:34:31.226Z,12.43
2023-04-29T03:37:13.134Z,12.15
2023-04-29T03:39:44.105Z,13.40
2023-04-29T03:42:11.230Z,13.50
2023-04-29T03:44:38.770Z,14.30
2023-04-29T03:47:06.638Z,12.85
2023-04-29T03:49:34.210Z,13.43
2023-04-29T03:52:01.422Z,21.08
2023-04-29T03:54:28.703Z,11.00
2023-04-29T03:56:56.537Z,15.25
2023-04-29T03:59:24.441Z,12.02
2023-04-29T04:01:54.116Z,10.38
2023-04-29T04:04:22.027Z,10.63
2023-04-29T04:06:51.878Z,16.40
2023-04-29T04:09:21.425Z,13.48
2023-04-29T04:11:48.677Z,14.23
2023-04-29T04:14:16.222Z,15.63
2023-04-29T04:16:43.240Z,16.85
2023-04-29T04:19:10.512Z,17.92
2023-04-29T04:21:41.016Z,15.82
2023-04-29T04:24:10.063Z,20.63
2023-04-29T04:26:38.148Z,27.10
2023-04-29T04:29:22.387Z,20.40
2023-04-29T04:32:15.291Z,22.08
2023-04-29T04:34:42.467Z,28.33
2023-04-29T04:37:10.117Z,22.38
2023-04-29T04:39:38.898Z,26.60
2023-04-29T04:42:06.797Z,23.85
2023-04-29T04:44:34.468Z,24.30
2023-04-29T04:47:14.928Z,22.98
2023-04-29T04:49:58.150Z,24.95
2023-04-29T04:52:25.163Z,24.35
2023-04-29T04:55:17.752Z,19.42
2023-04-29T04:57:46.767Z,22.35
2023-04-29T05:00:14.086Z,23.98
2023-04-29T05:02:41.844Z,25.65
2023-04-29T05:05:09.176Z,22.75
2023-04-29T05:07:37.828Z,24.55
2023-04-29T05:10:06.740Z,26.33
2023-04-29T05:12:37.754Z,29.02
2023-04-29T05:15:05.260Z,28.52
2023-04-29T05:17:32.877Z,28.83
2023-04-29T05:20:00.032Z,28.23
2023-04-29T05:22:27.143Z,31.17
2023-04-29T05:24:55.178Z,37.58
2023-04-29T05:27:22.339Z,32.10
2023-04-29T05:29:49.408Z,31.20
2023-04-29T05:32:16.605Z,32.42
2023-04-29T05:34:44.758Z,33.08
2023-04-29T05:37:11.882Z,40.80
2023-04-29T05:39:54.021Z,33.37
2023-04-29T05:42:21.295Z,35.60
2023-04-29T05:44:51.207Z,36.97
2023-04-29T05:47:18.260Z,38.75
2023-04-29T05:49:45.692Z,36.50
2023-04-29T05:52:12.792Z,39.88
2023-04-29T05:54:45.265Z,41.95
2023-04-29T05:57:12.854Z,36.67
2023-04-29T05:59:40.777Z,37.58
2023-04-29T06:02:10.869Z,37.08
2023-04-29T06:04:41.402Z,35.80
2023-04-29T06:07:20.361Z,40.50
2023-04-29T06:10:17.006Z,32.83
2023-04-29T06:12:46.617Z,39.17
2023-04-29T06:15:13.743Z,36.05
2023-04-29T06:17:40.888Z,38.90
2023-04-29T06:20:09.381Z,38.42
2023-04-29T06:22:36.461Z,25.42
2023-04-29T06:25:05.994Z,25.45
2023-04-29T06:27:43.250Z,24.20
2023-04-29T06:30:11.468Z,27.92
2023-04-29T06:32:40.125Z,21.35
2023-04-29T06:35:08.244Z,17.85
2023-04-29T06:38:04.462Z,18.63
2023-04-29T06:41:06.652Z,12.98
2023-04-29T06:43:56.810Z,11.98
2023-04-29T06:46:42.932Z,9.23
2023-04-29T06:49:16.983Z,19.20
2023-04-29T06:51:44.095Z,7.65
2023-04-29T06:54:11.107Z,10.32
2023-04-29T06:56:38.163Z,7.43
2023-04-29T06:59:05.341Z,10.93
2023-04-29T07:01:32.414Z,8.85
2023-04-29T07:03:59.912Z,9.13
2023-04-29T07:06:27.220Z,9.82
2023-04-29T07:08:56.259Z,7.40
2023-04-29T07:11:24.793Z,5.47
2023-04-29T07:13:53.268Z,6.10
2023-04-29T07:16:22.134Z,8.18
2023-04-29T07:18:49.453Z,5.35
2023-04-29T07:21:16.506Z,7.38
2023-04-29T07:23:43.721Z,7.57
2023-04-29T07:26:15.865Z,3.78
2023-04-29T07:28:45.600Z,6.88
2023-04-29T07:31:12.772Z,3.10
2023-04-29T07:33:40.029Z,4.65
2023-04-29T07:36:07.773Z,7.47
2023-04-29T07:38:35.239Z,14.00
2023-04-29T07:41:04.419Z,4.78
2023-04-29T07:43:31.469Z,7.95
2023-04-29T07:45:58.508Z,9.10
2023-04-29T07:48:26.119Z,5.43
2023-04-29T07:50:53.610Z,8.38
2023-04-29T07:53:20.821Z,6.63
2023-04-29T07:55:47.929Z,5.63
2023-04-29T07:58:15.030Z,5.35
2023-04-29T08:00:42.070Z,6.13
2023-04-29T08:03:09.329Z,9.10
2023-04-29T08:05:36.766Z,5.93
2023-04-29T08:08:04.016Z,6.93
2023-04-29T08:10:31.889Z,7.90
2023-04-29T08:12:59.095Z,10.75
2023-04-29T08:15:26.392Z,5.45
2023-04-29T08:17:54.259Z,6.40
2023-04-29T08:20:21.481Z,5.60
2023-04-29T08:22:48.550Z,8.60
2023-04-29T08:25:15.907Z,5.90
2023-04-29T08:27:45.249Z,3.55
2023-04-29T08:30:12.671Z,5.30
2023-04-29T08:32:39.751Z,4.70
2023-04-29T08:35:07.544Z,7.65
2023-04-29T08:37:34.671Z,5.82
2023-04-29T08:40:02.173Z,6.97
2023-04-29T08:42:37.291Z,5.40
2023-04-29T08:45:05.076Z,7.72
2023-04-29T08:47:33.933Z,6.93
2023-04-29T08:50:05.686Z,7.03
2023-04-29T08:52:33.174Z,7.83
2023-04-29T08:55:02.536Z,11.15
2023-04-29T08:57:31.002Z,8.07
2023-04-29T08:59:59.736Z,12.35
2023-04-29T09:02:27.570Z,16.52
2023-04-29T09:05:06.267Z,14.90
2023-04-29T09:07:34.240Z,16.17
2023-04-29T09:10:04.251Z,16.63
2023-04-29T09:12:31.455Z,17.83
2023-04-29T09:14:59.966Z,20.38
2023-04-29T09:17:48.358Z,21.52
2023-04-29T09:20:21.631Z,18.52
2023-04-29T09:22:50.046Z,24.98
2023-04-29T09:25:17.731Z,24.10
2023-04-29T09:27:45.078Z,22.88
2023-04-29T09:30:13.528Z,22.02
2023-04-29T09:32:41.007Z,19.33
2023-04-29T09:35:28.162Z,23.33
2023-04-29T09:38:09.805Z,24.25
2023-04-29T09:40:50.135Z,26.90
2023-04-29T09:43:24.119Z,29.52
2023-04-29T09:45:51.663Z,28.33
2023-04-29T09:48:18.779Z,32.72
2023-04-29T09:50:59.617Z,31.80
2023-04-29T09:53:31.387Z,30.55
2023-04-29T09:56:01.635Z,46.03
2023-04-29T09:58:33.815Z,24.70
2023-04-29T10:01:02.739Z,29.80
2023-04-29T10:03:34.713Z,24.27
2023-04-29T10:06:03.899Z,21.02
2023-04-29T10:08:32.179Z,19.33
2023-04-29T10:11:03.917Z,17.40
2023-04-29T10:13:33.388Z,20.23
2023-04-29T10:16:03.848Z,17.13
2023-04-29T10:18:48.840Z,20.27
2023-04-29T10:21:18.605Z,17.15
2023-04-29T10:23:46.156Z,16.27
2023-04-29T10:26:15.191Z,17.38
2023-04-29T10:28:46.039Z,16.10
2023-04-29T10:31:14.585Z,12.82
2023-04-29T10:33:46.040Z,14.73
2023-04-29T10:36:14.925Z,14.43
2023-04-29T10:38:53.139Z,14.35
2023-04-29T10:41:28.604Z,13.82
2023-04-29T10:43:55.867Z,12.32
2023-04-29T10:46:26.634Z,14.98
2023-04-29T10:49:12.147Z,14.63
2023-04-29T10:51:45.861Z,11.57
2023-04-29T10:54:13.677Z,12.05
2023-04-29T10:56:51.143Z,10.98
2023-04-29T10:59:42.480Z,9.63
2023-04-29T11:02:12.361Z,12.10
2023-04-29T11:05:11.166Z,15.85
2023-04-29T11:07:38.561Z,11.68
2023-04-29T11:10:07.351Z,13.48
2023-04-29T11:12:34.413Z,9.90
2023-04-29T11:15:04.658Z,10.13
2023-04-29T11:17:36.668Z,13.55
2023-04-29T11:20:04.407Z,8.63
2023-04-29T11:22:33.664Z,8.02
2023-04-29T11:25:06.730Z,8.50
2023-04-29T11:27:38.576Z,7.72
2023-04-29T11:30:07.481Z,7.40
2023-04-29T11:32:40.729Z,6.28
2023-04-29T11:35:09.411Z,6.32
2023-04-29T11:37:37.532Z,8.00
2023-04-29T11:40:06.115Z,9.52
2023-04-29T11:42:40.618Z,9.32
2023-04-29T11:45:08.191Z,7.22
2023-04-29T11:47:35.318Z,8.27
2023-04-29T11:50:08.073Z,7.35
2023-04-29T11:55:05.032Z,5.93
2023-04-29T11:57:32.344Z,6.03
2023-04-29T11:59:59.486Z,8.93
2023-04-29T12:02:34.062Z,7.90
2023-04-29T12:05:06.886Z,7.93
2023-04-29T12:07:34.911Z,8.60
2023-04-29T12:10:01.957Z,7.85
2023-04-29T12:12:31.428Z,9.25
2023-04-29T12:14:58.585Z,10.02
2023-04-29T12:17:25.859Z,9.02
2023-04-29T12:19:53.061Z,8.20
2023-04-29T12:22:20.345Z,13.13
2023-04-29T12:24:47.526Z,9.15
2023-04-29T12:27:14.874Z,10.48
2023-04-29T12:29:42.047Z,14.60
2023-04-29T12:32:16.631Z,10.07
2023-04-29T12:34:46.311Z,12.00
2023-04-29T12:37:15.039Z,14.82
2023-04-29T12:39:42.211Z,14.50
2023-04-29T12:42:18.021Z,13.52
2023-04-29T12:44:48.953Z,12.65
2023-04-29T12:47:16.793Z,12.90
2023-04-29T12:49:48.307Z,12.65
2023-04-29T12:52:15.792Z,12.27
2023-04-29T12:54:43.649Z,13.70
2023-04-29T12:57:11.936Z,11.82
2023-04-29T12:59:40.708Z,12.60
2023-04-29T13:02:07.970Z,14.75
2023-04-29T13:04:35.086Z,13.93
2023-04-29T13:07:02.477Z,16.38
2023-04-29T13:09:30.603Z,13.88
2023-04-29T13:11:57.819Z,13.20
2023-04-29T13:14:25.050Z,14.45
2023-04-29T13:16:52.269Z,13.93
2023-04-29T13:20:19.205Z,11.80
2023-04-29T13:27:06.719Z,15.40
2023-04-29T13:29:33.988Z,12.75
2023-04-29T13:32:01.197Z,15.20
2023-04-29T13:34:28.437Z,13.20
2023-04-29T13:36:55.478Z,13.77
2023-04-29T13:39:23.242Z,17.10
2023-04-29T13:41:51.537Z,12.80
2023-04-29T13:44:29.476Z,14.88
2023-04-29T13:47:01.571Z,12.68
2023-04-29T13:50:20.114Z,13.35
2023-04-29T13:58:08.190Z,15.63
2023-04-29T14:00:14.042Z,18.45
2023-04-29T14:05:25.815Z,18.95
2023-04-29T14:07:53.000Z,20.17
2023-04-29T14:10:20.101Z,21.38
2023-04-29T14:12:48.662Z,22.08
2023-04-29T14:15:16.294Z,23.90
2023-04-29T14:17:43.430Z,20.95
2023-04-29T14:20:11.058Z,21.98
2023-04-29T14:22:38.062Z,23.83
2023-04-29T14:25:05.629Z,22.58
2023-04-29T14:27:32.732Z,19.02
2023-04-29T14:29:59.749Z,21.95
2023-04-29T14:32:26.809Z,18.60
2023-04-29T14:34:54.256Z,23.02
2023-04-29T14:37:21.649Z,20.67
2023-04-29T14:39:48.655Z,20.77
2023-04-29T14:42:15.893Z,20.95
2023-04-29T14:44:42.880Z,19.20
2023-04-29T14:47:09.908Z,22.52
2023-04-29T14:49:36.907Z,21.15
2023-04-29T14:52:04.633Z,19.13
2023-04-29T14:54:31.747Z,18.10
2023-04-29T14:56:58.847Z,20.35
2023-04-29T14:59:25.934Z,19.42
2023-04-29T15:01:52.974Z,19.23
2023-04-29T15:04:20.005Z,22.08
2023-04-29T15:06:47.255Z,21.58
2023-04-29T15:09:14.301Z,21.45
2023-04-29T15:11:41.401Z,17.75
2023-04-29T15:14:08.554Z,18.65
2023-04-29T15:16:36.188Z,20.40
2023-04-29T15:19:03.335Z,18.48
2023-04-29T15:21:32.266Z,17.95
2023-04-29T15:23:59.245Z,21.15
2023-04-29T15:26:27.347Z,20.05
2023-04-29T15:28:54.680Z,22.92
2023-04-29T15:31:24.302Z,17.73
2023-04-29T15:33:54.715Z,18.75
2023-04-29T15:36:29.469Z,21.27
2023-04-29T15:38:56.889Z,24.08
2023-04-29T15:41:27.560Z,19.63
2023-04-29T15:43:57.214Z,17.30
2023-04-29T15:46:24.428Z,16.83
2023-04-29T15:48:51.523Z,17.48
2023-04-29T15:51:18.764Z,16.05
2023-04-29T15:53:45.785Z,21.42
2023-04-29T15:56:13.213Z,17.88
2023-04-29T15:58:40.228Z,23.90
2023-04-29T16:01:07.336Z,20.83
2023-04-29T16:03:34.726Z,17.83
2023-04-29T16:06:01.873Z,21.42
2023-04-29T16:08:28.927Z,16.50
2023-04-29T16:10:55.993Z,17.77
2023-04-29T16:13:23.060Z,23.13
2023-04-29T16:15:50.174Z,19.17
2023-04-29T16:18:17.823Z,20.80
2023-04-29T16:20:45.451Z,18.50
2023-04-29T16:23:12.580Z,21.23
2023-04-29T16:25:42.937Z,16.98
2023-04-29T16:28:10.059Z,22.63
2023-04-29T16:30:37.124Z,20.83
2023-04-29T16:33:04.459Z,19.58
2023-04-29T16:35:31.709Z,20.30
2023-04-29T16:37:58.716Z,23.80
2023-04-29T16:40:25.910Z,19.83
2023-04-29T16:42:53.369Z,18.17
2023-04-29T16:45:23.171Z,17.45
2023-04-29T16:47:51.690Z,18.98
2023-04-29T16:50:19.040Z,18.02
2023-04-29T16:52:46.095Z,24.80
2023-04-29T16:55:13.348Z,21.42
2023-04-29T16:57:40.403Z,19.38
2023-04-29T17:00:12.098Z,18.88
2023-04-29T17:02:43.011Z,24.07
2023-04-29T17:05:10.953Z,21.45
2023-04-29T17:07:38.292Z,18.02
2023-04-29T17:10:06.709Z,23.30
2023-04-29T17:12:33.772Z,32.72
2023-04-29T17:15:00.964Z,74.43
2023-04-29T17:17:28.284Z,24.05
2023-04-29T17:19:56.011Z,36.25
2023-04-29T17:22:23.375Z,30.55
2023-04-29T17:24:51.138Z,77.22
2023-04-29T17:27:18.342Z,45.92
2023-04-29T17:29:47.503Z,20.17
2023-04-29T17:32:17.268Z,21.13
2023-04-29T17:34:44.341Z,23.95
2023-04-29T17:37:11.398Z,21.77
2023-04-29T17:39:38.463Z,28.58
2023-04-29T17:42:05.583Z,22.75
2023-04-29T17:44:32.690Z,56.90
2023-04-29T17:46:59.661Z,24.27
2023-04-29T17:49:26.795Z,30.13
2023-04-29T17:51:53.834Z,17.58
2023-04-29T17:54:20.836Z,22.92
2023-04-29T17:56:47.821Z,22.02
2023-04-29T17:59:14.873Z,22.17
2023-04-29T18:01:42.710Z,19.10
2023-04-29T18:04:09.996Z,20.65
2023-04-29T18:06:37.125Z,18.13
2023-04-29T18:09:05.184Z,21.48
2023-04-29T18:11:32.746Z,20.13
2023-04-29T18:13:59.900Z,21.50
2023-04-29T18:16:27.262Z,21.73
2023-04-29T18:18:56.795Z,20.25
2023-04-29T18:21:25.785Z,19.63
2023-04-29T18:23:56.653Z,21.92
2023-04-29T18:26:24.490Z,21.92
2023-04-29T18:28:51.692Z,23.73
2023-04-29T18:31:20.057Z,24.05
2023-04-29T18:33:47.239Z,24.30
2023-04-29T18:36:14.508Z,27.25
2023-04-29T18:38:41.853Z,27.85
2023-04-29T18:41:09.206Z,21.48
2023-04-29T18:43:36.592Z,18.25
2023-04-29T18:46:03.799Z,21.00
2023-04-29T18:48:31.197Z,18.80
2023-04-29T18:51:00.098Z,27.38
2023-04-29T18:53:27.330Z,27.13
2023-04-29T18:55:54.582Z,19.65
2023-04-29T18:58:22.035Z,25.60
2023-04-29T19:00:49.094Z,22.48
2023-04-29T19:03:16.377Z,22.77
2023-04-29T19:05:43.959Z,33.20
2023-04-29T19:08:11.031Z,27.15
2023-04-29T19:10:38.078Z,28.45
2023-04-29T19:13:05.386Z,23.85
2023-04-29T19:15:32.596Z,25.13
2023-04-29T19:17:59.658Z,23.45
2023-04-29T19:20:27.138Z,18.55
2023-04-29T19:22:54.399Z,29.10
2023-04-29T19:25:21.697Z,23.23
2023-04-29T19:27:49.003Z,27.67
2023-04-29T19:30:16.533Z,23.50
2023-04-29T19:32:45.804Z,25.77
2023-04-29T19:35:12.931Z,32.13
2023-04-29T19:37:40.370Z,38.35
2023-04-29T19:40:10.510Z,33.67
2023-04-29T19:42:39.120Z,34.47
2023-04-29T19:45:07.718Z,37.97
2023-04-29T19:47:35.139Z,36.13
2023-04-29T19:50:02.706Z,25.75
2023-04-29T19:52:29.904Z,24.20
2023-04-29T19:54:57.095Z,32.58
2023-04-29T19:57:24.970Z,27.45
2023-04-29T19:59:52.675Z,29.90
2023-04-29T20:02:20.148Z,31.35
2023-04-29T20:04:48.124Z,25.40
2023-04-29T20:07:15.221Z,26.33
2023-04-29T20:09:42.725Z,37.53
2023-04-29T20:12:10.128Z,31.45
2023-04-29T20:14:37.228Z,24.15
2023-04-29T20:17:04.647Z,46.08
2023-04-29T20:19:31.948Z,53.08
2023-04-29T20:21:59.030Z,48.63
2023-04-29T20:24:26.758Z,53.72
2023-04-29T20:26:53.844Z,32.10
2023-04-29T20:29:21.313Z,20.90
2023-04-29T20:31:48.322Z,23.25
2023-04-29T20:34:15.536Z,35.33
2023-04-29T20:36:42.595Z,19.92
2023-04-29T20:39:09.756Z,25.42
2023-04-29T20:41:36.778Z,23.00
2023-04-29T20:44:04.394Z,20.23
2023-04-29T20:46:31.620Z,20.50
2023-04-29T20:48:58.758Z,23.38
2023-04-29T20:51:26.706Z,22.23
2023-04-29T20:53:53.767Z,22.15
2023-04-29T20:56:21.636Z,25.45
2023-04-29T20:58:48.739Z,21.05
2023-04-29T21:01:15.908Z,20.63
2023-04-29T21:03:43.073Z,24.60
2023-04-29T21:06:10.156Z,22.08
2023-04-29T21:08:37.289Z,18.48
2023-04-29T21:11:09.484Z,23.40
2023-04-29T21:13:36.807Z,22.25
2023-04-29T21:16:04.281Z,20.13
2023-04-29T21:18:31.323Z,23.98
2023-04-29T21:20:58.306Z,23.55
2023-04-29T21:23:25.451Z,28.45
2023-04-29T21:25:52.498Z,21.55
2023-04-29T21:28:19.499Z,25.42
2023-04-29T21:30:46.563Z,26.42
2023-04-29T21:33:13.603Z,26.42
2023-04-29T21:35:42.088Z,26.90
2023-04-29T21:38:09.302Z,24.65
2023-04-29T21:40:40.942Z,22.08
2023-04-29T21:43:09.606Z,28.17
2023-04-29T21:45:37.438Z,26.13
2023-04-29T21:48:12.333Z,28.58
2023-04-29T21:50:39.795Z,28.63
2023-04-29T21:53:07.214Z,22.52
2023-04-29T21:55:34.227Z,30.70
2023-04-29T21:58:01.399Z,26.33
2023-04-29T22:00:33.185Z,25.75
2023-04-29T22:03:01.563Z,23.70
2023-04-29T22:05:29.432Z,26.90
2023-04-29T22:07:59.015Z,30.40
2023-04-29T22:10:26.131Z,20.98
2023-04-29T22:12:53.250Z,23.88
2023-04-29T22:15:28.039Z,26.42
2023-04-29T22:17:57.236Z,21.60
2023-04-29T22:20:24.858Z,27.02
2023-04-29T22:22:52.314Z,23.48
2023-04-29T22:25:22.241Z,26.83
2023-04-29T22:27:50.265Z,31.58
2023-04-29T22:30:17.741Z,22.60
2023-04-29T22:32:44.978Z,25.83
2023-04-29T22:35:12.195Z,25.67
2023-04-29T22:37:39.217Z,25.58
2023-04-29T22:40:06.820Z,26.30
2023-04-29T22:42:33.897Z,25.20
2023-04-29T22:45:00.909Z,20.77
2023-04-29T22:47:28.052Z,25.63
2023-04-29T22:49:55.420Z,26.30
2023-04-29T22:52:22.631Z,25.70
2023-04-29T22:54:49.740Z,23.45
2023-04-29T22:57:16.776Z,31.73
2023-04-29T22:59:43.882Z,27.38
2023-04-29T23:02:11.910Z,28.02
2023-04-29T23:04:39.020Z,28.73
2023-04-29T23:07:06.103Z,24.90
2023-04-29T23:09:33.167Z,25.13
2023-04-29T23:12:00.162Z,30.00
2023-04-29T23:14:27.163Z,23.13
2023-04-29T23:16:54.236Z,24.25
2023-04-29T23:19:21.307Z,26.98
2023-04-29T23:21:48.299Z,24.23
2023-04-29T23:24:15.280Z,26.33
2023-04-29T23:26:42.288Z,27.00
2023-04-29T23:29:09.276Z,21.60
2023-04-29T23:31:36.407Z,27.40
2023-04-29T23:34:03.800Z,23.77
2023-04-29T23:36:31.244Z,21.98
2023-04-29T23:38:58.495Z,25.70
2023-04-29T23:41:25.541Z,23.85
2023-04-29T23:43:52.615Z,25.70
2023-04-29T23:46:19.667Z,25.63
2023-04-29T23:48:46.704Z,20.83
2023-04-29T23:51:13.732Z,29.27
2023-04-29T23:53:40.797Z,23.83
2023-04-29T23:56:07.963Z,28.73
2023-04-29T23:58:35.122Z,26.73
